Time;durP1;ratioP1;P1;durP2;ratioP2;P2;SDS_P1;SDS_P2;PMS_P1;PMS_P2;Temp;Humidity;BMP_temperature;BMP_pressure;BME280_temperature;BME280_humidity;BME280_pressure;Samples;Min_cycle;Max_cycle;Signal;HPM_P1;HPM_P2
2024/03/13 00:00:10;;;;;;;21.83;15.05;;;;;;;11.81;63.27;100094.09;6098061;22;96661;-81
2024/03/13 00:02:37;;;;;;;25.52;15.70;;;;;;;11.85;63.05;100108.84;6123855;22;97029;-82
2024/03/13 00:05:04;;;;;;;25.15;14.40;;;;;;;11.84;62.51;100109.72;6097789;22;100522;-80
2024/03/13 00:07:31;;;;;;;25.13;14.50;;;;;;;11.84;63.08;100115.00;6072854;22;100457;-80
2024/03/13 00:09:57;;;;;;;21.33;13.38;;;;;;;11.82;62.93;100108.09;6122499;22;97272;-80
2024/03/13 00:12:24;;;;;;;23.10;13.98;;;;;;;11.76;62.79;100104.78;6098345;22;96785;-81
2024/03/13 00:14:50;;;;;;;19.92;13.68;;;;;;;11.79;62.33;100106.44;6122660;22;97700;-80
2024/03/13 00:17:20;;;;;;;20.30;12.23;;;;;;;11.77;61.81;100097.75;6097597;22;100660;-80
2024/03/13 00:19:56;;;;;;;20.02;12.50;;;;;;;11.77;62.18;100111.75;6122323;22;97085;-79
2024/03/13 00:22:22;;;;;;;23.98;12.63;;;;;;;11.74;61.75;100116.28;6098047;22;96994;-80
2024/03/13 00:24:54;;;;;;;19.20;12.27;;;;;;;11.73;62.24;100107.56;6121848;22;97792;-80
2024/03/13 00:27:20;;;;;;;19.15;10.68;;;;;;;11.71;62.12;100108.53;6121222;22;97570;-82
2024/03/13 00:29:49;;;;;;;27.38;11.05;;;;;;;11.67;62.08;100110.44;6121676;22;97120;-80
2024/03/13 00:32:16;;;;;;;16.00;11.65;;;;;;;11.68;62.49;100108.66;6097839;22;96670;-80
2024/03/13 00:34:44;;;;;;;17.42;11.63;;;;;;;11.63;62.24;100102.72;6122525;22;97735;-80
2024/03/13 00:37:11;;;;;;;18.98;10.52;;;;;;;11.67;61.68;100106.97;6123477;22;97482;-80
2024/03/13 00:39:36;;;;;;;17.42;10.93;;;;;;;11.67;61.95;100101.69;6148043;22;96640;-80
2024/03/13 00:42:03;;;;;;;14.98;9.52;;;;;;;11.61;62.11;100104.59;6122202;22;97174;-80
2024/03/13 00:44:28;;;;;;;14.25;10.45;;;;;;;11.62;61.50;100106.28;6121432;22;98053;-81
2024/03/13 00:46:54;;;;;;;13.20;10.82;;;;;;;11.59;61.88;100106.41;6121698;22;97798;-80
2024/03/13 00:49:20;;;;;;;18.33;11.30;;;;;;;11.51;61.74;100104.94;6149131;22;96646;-80
2024/03/13 00:51:45;;;;;;;15.40;9.77;;;;;;;11.51;61.82;100096.22;6097492;22;96764;-80
2024/03/13 00:54:11;;;;;;;17.98;10.57;;;;;;;11.48;61.38;100099.81;6097224;22;100525;-81
2024/03/13 00:56:36;;;;;;;19.27;10.13;;;;;;;11.49;61.71;100095.41;6096762;22;100081;-80
2024/03/13 00:59:05;;;;;;;14.90;10.27;;;;;;;11.47;61.61;100100.75;6097742;22;96699;-80
2024/03/13 01:01:30;;;;;;;13.80;10.85;;;;;;;11.47;61.57;100099.91;6098497;22;96835;-81
2024/03/13 01:03:59;;;;;;;16.75;10.40;;;;;;;11.47;61.62;100092.00;6097344;22;97383;-80
2024/03/13 01:06:28;;;;;;;13.48;10.02;;;;;;;11.47;61.81;100092.84;6122792;22;97353;-80
2024/03/13 01:08:57;;;;;;;14.50;10.35;;;;;;;11.46;61.33;100091.16;6097384;22;96775;-80
2024/03/13 01:11:28;;;;;;;14.93;10.25;;;;;;;11.40;61.17;100087.91;6121765;22;97323;-82
2024/03/13 01:13:54;;;;;;;13.03;10.00;;;;;;;11.40;61.45;100098.41;6071949;22;100419;-80
2024/03/13 01:16:20;;;;;;;21.23;11.80;;;;;;;11.36;61.60;100099.47;6122014;22;97273;-80
2024/03/13 01:18:46;;;;;;;17.25;10.70;;;;;;;11.27;61.34;100088.41;6122707;22;96695;-80
2024/03/13 01:21:11;;;;;;;15.73;10.93;;;;;;;11.33;61.90;100103.94;6091806;23;96917;-80
2024/03/13 01:23:39;;;;;;;17.52;10.43;;;;;;;11.21;61.48;100080.78;6092613;23;97836;-80
2024/03/13 01:26:04;;;;;;;15.27;10.15;;;;;;;11.23;61.64;100094.72;6116753;23;97091;-80
2024/03/13 01:28:30;;;;;;;19.58;10.35;;;;;;;11.20;61.58;100094.84;6068083;23;96833;-80
2024/03/13 01:30:56;;;;;;;15.52;10.27;;;;;;;11.14;61.91;100088.97;6117363;23;97088;-81
2024/03/13 01:33:21;;;;;;;14.75;9.95;;;;;;;11.22;61.72;100105.28;6116730;23;97906;-80
2024/03/13 01:35:47;;;;;;;14.43;9.95;;;;;;;11.23;61.74;100107.84;6092118;23;97684;-80
2024/03/13 01:38:13;;;;;;;15.23;10.15;;;;;;;11.21;62.06;100100.94;6068132;23;97092;-80
2024/03/13 01:57:31;;;;;;;15.40;10.27;;;;;;;11.22;62.17;100105.28;6117223;23;97789;-80
2024/03/13 02:02:46;;;;;;;15.60;10.57;;;;;;;11.25;62.10;100113.03;6091882;23;97195;-80
2024/03/13 02:05:14;;;;;;;14.38;9.90;;;;;;;11.16;61.92;100090.63;6116966;23;97412;-80
2024/03/13 02:07:39;;;;;;;11.85;9.40;;;;;;;11.19;61.69;100093.13;6116734;23;97295;-80
2024/03/13 02:10:05;;;;;;;15.65;10.50;;;;;;;11.24;62.00;100108.72;6092547;23;96708;-80
2024/03/13 02:12:31;;;;;;;12.30;9.70;;;;;;;11.16;61.50;100098.50;6116473;23;97372;-81
2024/03/13 02:14:57;;;;;;;13.05;9.68;;;;;;;11.15;61.71;100104.69;6067640;23;97335;-80
2024/03/13 02:17:22;;;;;;;16.88;10.57;;;;;;;11.13;61.66;100089.88;6067997;23;97886;-80
2024/03/13 02:19:48;;;;;;;15.77;10.45;;;;;;;11.15;61.96;100103.81;6098861;22;97016;-79
2024/03/13 02:22:14;;;;;;;15.18;10.13;;;;;;;11.15;61.98;100106.47;6121654;22;97335;-80
2024/03/13 02:24:40;;;;;;;14.80;11.35;;;;;;;11.12;61.83;100102.19;6096120;22;97819;-80
2024/03/13 02:27:12;;;;;;;21.33;11.27;;;;;;;11.15;62.10;100115.19;6121462;22;97242;-80
2024/03/13 02:29:39;;;;;;;15.07;10.75;;;;;;;11.07;61.76;100096.25;6097382;22;97087;-79
2024/03/13 02:32:05;;;;;;;16.15;11.77;;;;;;;11.08;62.19;100116.31;6096830;22;96744;-80
2024/03/13 02:34:30;;;;;;;16.38;11.48;;;;;;;11.03;61.72;100102.53;6122072;22;97442;-80
2024/03/13 02:36:56;;;;;;;17.85;11.68;;;;;;;11.10;62.14;100115.34;6121575;22;97595;-80
2024/03/13 02:39:22;;;;;;;15.32;12.50;;;;;;;11.14;62.04;100117.84;6121747;22;96670;-80
2024/03/13 02:41:47;;;;;;;21.38;12.98;;;;;;;11.15;61.96;100122.22;6096534;22;97115;-80
2024/03/13 02:44:13;;;;;;;15.75;12.10;;;;;;;11.12;62.12;100111.84;6121338;22;97624;-79
2024/03/13 02:46:39;;;;;;;17.08;13.52;;;;;;;11.11;62.13;100118.81;6121265;22;97712;-80
2024/03/13 02:49:05;;;;;;;16.67;12.23;;;;;;;11.04;61.43;100102.47;6121689;22;96692;-80
2024/03/13 02:51:30;;;;;;;15.75;12.68;;;;;;;11.14;61.87;100129.25;6122635;22;97083;-80
2024/03/13 02:53:56;;;;;;;17.52;12.77;;;;;;;11.05;62.62;100119.06;6097694;22;100336;-80
2024/03/13 02:56:22;;;;;;;18.60;13.20;;;;;;;11.06;62.41;100121.66;6122155;22;97638;-80
2024/03/13 02:58:48;;;;;;;16.27;12.18;;;;;;;11.06;62.25;100126.91;6123041;22;97307;-80
2024/03/13 03:01:14;;;;;;;17.95;13.52;;;;;;;11.09;61.86;100123.31;6097781;22;96797;-80
2024/03/13 03:03:40;;;;;;;22.38;13.38;;;;;;;11.06;61.96;100124.28;6097444;22;100762;-79
2024/03/13 03:06:06;;;;;;;16.38;13.43;;;;;;;11.14;61.75;100138.88;6097747;22;100491;-80
2024/03/13 03:08:33;;;;;;;15.90;12.73;;;;;;;11.16;61.88;100134.44;6122228;22;97128;-80
2024/03/13 03:11:03;;;;;;;17.45;13.10;;;;;;;11.09;61.65;100128.56;6098275;22;97448;-80
2024/03/13 03:13:29;;;;;;;21.52;13.18;;;;;;;11.06;62.42;100133.94;6096668;22;100605;-80
2024/03/13 03:15:54;;;;;;;16.90;12.07;;;;;;;11.11;62.01;100137.22;6121700;22;97724;-81
2024/03/13 03:18:20;;;;;;;17.10;12.88;;;;;;;11.09;61.94;100132.03;6122235;22;96775;-80
2024/03/13 03:20:45;;;;;;;21.17;13.48;;;;;;;11.07;61.91;100128.59;6121457;22;97083;-80
2024/03/13 03:23:11;;;;;;;16.75;12.73;;;;;;;11.02;62.13;100129.69;6147994;22;97838;-81
2024/03/13 03:25:37;;;;;;;16.63;12.93;;;;;;;11.07;62.15;100136.50;6096878;22;100354;-80
2024/03/13 03:28:03;;;;;;;17.45;13.50;;;;;;;11.01;61.96;100128.84;6098176;22;97069;-80
2024/03/13 03:30:31;;;;;;;19.58;14.05;;;;;;;11.03;62.20;100131.44;6123124;22;96982;-80
2024/03/13 03:33:00;;;;;;;18.35;13.65;;;;;;;11.06;61.89;100141.81;6097857;22;97820;-81
2024/03/13 03:35:27;;;;;;;20.70;13.25;;;;;;;11.06;61.94;100144.44;6123232;22;97843;-80
2024/03/13 03:37:53;;;;;;;17.63;13.38;;;;;;;11.04;62.25;100148.91;6122626;22;96922;-80
2024/03/13 03:40:18;;;;;;;22.33;13.75;;;;;;;10.99;62.34;100142.94;6122333;22;96780;-81
2024/03/13 03:42:46;;;;;;;20.65;13.65;;;;;;;10.94;62.24;100140.53;6097083;22;100553;-79
2024/03/13 03:45:12;;;;;;;19.48;13.63;;;;;;;10.98;62.05;100149.13;6097698;22;100476;-80
2024/03/13 03:47:38;;;;;;;27.40;14.55;;;;;;;10.96;61.91;100141.31;6098119;22;97170;-80
2024/03/13 03:50:07;;;;;;;21.10;15.32;;;;;;;10.87;62.49;100128.53;6122935;22;96939;-80
2024/03/13 03:52:34;;;;;;;22.13;14.18;;;;;;;10.92;62.09;100144.13;6122305;22;97607;-80
2024/03/13 03:54:59;;;;;;;23.58;15.98;;;;;;;10.92;62.25;100152.84;6122580;22;97373;-80
2024/03/13 03:57:25;;;;;;;27.02;14.70;;;;;;;10.91;62.38;100148.53;6148927;22;96543;-81
2024/03/13 03:59:50;;;;;;;19.88;14.10;;;;;;;10.88;61.97;100148.63;6148871;22;96730;-80
2024/03/13 04:02:16;;;;;;;20.73;16.45;;;;;;;10.90;62.59;100152.03;6147228;22;97641;-79
2024/03/13 04:04:43;;;;;;;22.10;15.90;;;;;;;10.89;62.32;100155.59;6148822;22;97461;-79
2024/03/13 04:07:11;;;;;;;21.08;15.52;;;;;;;10.85;62.59;100149.59;6122126;22;96675;-79
2024/03/13 04:09:36;;;;;;;27.50;16.48;;;;;;;10.90;62.24;100166.94;6122438;22;96808;-80
2024/03/13 04:12:02;;;;;;;23.63;16.73;;;;;;;10.87;62.40;100158.25;6096911;22;97868;-81
2024/03/13 04:14:28;;;;;;;26.05;16.42;;;;;;;10.90;62.39;100161.69;6148617;22;97527;-81
2024/03/13 04:16:54;;;;;;;23.90;15.50;;;;;;;10.93;62.57;100158.94;6097601;22;96678;-80
2024/03/13 04:19:21;;;;;;;22.55;15.02;;;;;;;10.80;62.18;100150.69;6122466;22;96907;-80
2024/03/13 04:21:47;;;;;;;24.10;15.35;;;;;;;10.82;62.55;100154.97;6121847;22;97425;-80
2024/03/13 04:24:13;;;;;;;25.60;16.70;;;;;;;10.87;62.64;100165.28;6097644;22;97131;-79
2024/03/13 04:26:39;;;;;;;22.13;15.98;;;;;;;10.83;62.70;100164.56;6095993;22;96778;-80
2024/03/13 04:29:04;;;;;;;26.30;17.05;;;;;;;10.86;63.07;100176.72;6097994;22;97477;-80
2024/03/13 04:31:30;;;;;;;23.95;15.88;;;;;;;10.71;63.03;100170.28;6148317;22;97586;-80
2024/03/13 04:33:56;;;;;;;23.98;17.13;;;;;;;10.80;62.99;100172.56;6097562;22;97708;-80
2024/03/13 04:36:21;;;;;;;21.25;15.80;;;;;;;10.72;62.77;100163.25;6148668;22;96570;-80
2024/03/13 04:38:51;;;;;;;24.88;16.73;;;;;;;10.76;62.67;100165.72;6122378;22;96762;-80
2024/03/13 04:41:19;;;;;;;28.23;17.42;;;;;;;10.83;62.55;100172.44;6097450;22;100180;-80
2024/03/13 04:43:48;;;;;;;26.95;16.42;;;;;;;10.80;62.84;100166.44;6097727;22;98520;-81
2024/03/13 04:46:15;;;;;;;24.35;17.60;;;;;;;10.66;63.10;100156.44;6097158;22;96639;-80
2024/03/13 04:48:40;;;;;;;25.10;17.17;;;;;;;10.74;63.03;100164.91;6148763;22;96721;-81
2024/03/13 04:51:07;;;;;;;28.13;17.00;;;;;;;10.78;63.38;100170.88;6096800;22;97573;-80
2024/03/13 04:53:33;;;;;;;26.13;15.93;;;;;;;10.73;63.56;100178.91;6096957;22;100068;-80
2024/03/13 04:55:59;;;;;;;23.45;17.23;;;;;;;10.75;63.49;100179.72;6096975;22;96744;-80
2024/03/13 04:58:25;;;;;;;23.75;15.93;;;;;;;10.75;63.30;100176.25;6122779;22;96710;-80
2024/03/13 05:00:50;;;;;;;27.10;15.63;;;;;;;10.74;63.06;100174.56;6148315;22;97311;-80
2024/03/13 05:03:16;;;;;;;26.25;15.57;;;;;;;10.75;62.71;100179.72;6121352;22;97199;-80
2024/03/13 05:05:45;;;;;;;23.90;15.35;;;;;;;10.66;63.17;100182.69;6096196;22;97155;-80
2024/03/13 05:08:11;;;;;;;20.77;14.82;;;;;;;10.69;63.39;100181.75;6123195;22;96797;-80
2024/03/13 05:10:36;;;;;;;20.77;15.23;;;;;;;10.71;63.42;100193.06;6147566;22;97554;-79
2024/03/13 05:13:02;;;;;;;29.42;17.02;;;;;;;10.70;63.26;100191.31;6072325;22;100673;-80
2024/03/13 05:15:28;;;;;;;22.13;15.35;;;;;;;10.72;63.43;100187.72;6096727;22;96950;-80
2024/03/13 05:17:55;;;;;;;19.35;14.43;;;;;;;10.74;63.48;100193.78;6097363;22;96806;-80
2024/03/13 05:20:22;;;;;;;19.92;15.63;;;;;;;10.73;63.32;100199.94;6121843;22;97510;-81
2024/03/13 05:22:47;;;;;;;25.35;16.00;;;;;;;10.71;63.55;100191.28;6121706;22;97413;-81
2024/03/13 05:25:17;;;;;;;21.98;15.27;;;;;;;10.62;63.50;100195.09;6119676;22;97134;-80
2024/03/13 05:27:46;;;;;;;19.65;15.10;;;;;;;10.67;63.44;100201.94;6119565;22;96766;-80
2024/03/13 05:30:12;;;;;;;23.90;15.60;;;;;;;10.60;63.42;100186.41;6120021;22;97971;-81
2024/03/13 05:32:37;;;;;;;29.02;16.27;;;;;;;10.58;63.71;100203.13;6094590;22;100154;-80
2024/03/13 05:35:06;;;;;;;22.23;16.35;;;;;;;10.61;63.26;100206.47;6119874;22;97065;-80
2024/03/13 05:37:33;;;;;;;25.25;16.73;;;;;;;10.68;63.57;100208.91;6119770;22;96656;-81
2024/03/13 05:40:01;;;;;;;24.98;15.20;;;;;;;10.70;63.29;100205.28;6094650;22;100353;-80
2024/03/13 05:42:27;;;;;;;23.70;15.98;;;;;;;10.69;63.35;100210.63;6120415;22;97791;-82
2024/03/13 05:44:52;;;;;;;25.33;16.17;;;;;;;10.71;63.26;100216.69;6093462;22;97062;-83
2024/03/13 05:47:20;;;;;;;26.98;16.42;;;;;;;10.72;63.42;100213.97;6118905;22;97323;-81
2024/03/13 05:49:45;;;;;;;25.15;15.73;;;;;;;10.69;63.49;100213.25;6118295;22;97576;-81
2024/03/13 05:52:11;;;;;;;26.27;16.20;;;;;;;10.66;63.49;100214.19;6092707;22;100556;-80
2024/03/13 05:54:36;;;;;;;25.30;16.25;;;;;;;10.69;63.53;100221.13;6096568;22;96751;-81
2024/03/13 05:57:02;;;;;;;29.33;16.67;;;;;;;10.71;63.44;100214.91;6120959;22;97618;-79
2024/03/13 05:59:28;;;;;;;33.30;16.15;;;;;;;10.64;63.89;100205.50;6121964;22;97357;-81
2024/03/13 06:01:55;;;;;;;22.85;15.93;;;;;;;10.64;63.52;100216.03;6120060;22;97253;-82
2024/03/13 06:04:21;;;;;;;23.27;15.48;;;;;;;10.67;63.75;100231.66;6146930;22;96792;-80
2024/03/13 06:06:48;;;;;;;20.73;15.85;;;;;;;10.64;63.36;100221.25;6147817;22;96696;-82
2024/03/13 06:09:15;;;;;;;31.42;16.45;;;;;;;10.69;63.85;100224.59;6096680;22;97574;-79
2024/03/13 06:11:41;;;;;;;22.20;15.75;;;;;;;10.62;63.77;100218.72;6118999;22;97869;-82
2024/03/13 06:14:06;;;;;;;24.52;17.13;;;;;;;10.74;63.58;100232.31;6072196;22;96715;-83
2024/03/13 06:16:32;;;;;;;30.00;16.88;;;;;;;10.71;63.62;100224.56;6121544;22;97265;-80
2024/03/13 06:18:57;;;;;;;35.25;16.33;;;;;;;10.64;63.59;100219.50;6096630;22;97580;-80
2024/03/13 06:21:23;;;;;;;23.38;16.98;;;;;;;10.63;63.93;100223.03;6095861;22;98909;-80
2024/03/13 06:23:52;;;;;;;29.40;16.52;;;;;;;10.70;63.59;100222.81;6147566;22;96796;-80
2024/03/13 06:26:17;;;;;;;22.27;16.52;;;;;;;10.73;63.87;100236.69;6095959;22;96829;-79
2024/03/13 06:31:28;;;;;;;25.85;16.00;;;;;;;10.68;63.77;100230.75;6099584;22;100188;-82
2024/03/13 06:33:53;;;;;;;28.70;17.17;;;;;;;10.73;63.73;100230.59;6071302;22;96682;-80
2024/03/13 06:36:19;;;;;;;25.77;16.52;;;;;;;10.65;63.87;100228.25;6120372;22;96888;-79
2024/03/13 06:38:46;;;;;;;26.42;17.35;;;;;;;10.69;63.65;100240.34;6147434;22;98341;-79
2024/03/13 06:41:12;;;;;;;29.55;15.60;;;;;;;10.62;64.05;100225.75;6121221;22;97263;-80
2024/03/13 06:43:38;;;;;;;21.10;16.00;;;;;;;10.68;63.85;100233.38;6120175;22;97012;-80
2024/03/13 06:46:05;;;;;;;23.63;16.65;;;;;;;10.74;63.78;100242.81;6121439;22;96739;-80
2024/03/13 06:48:31;;;;;;;25.23;17.17;;;;;;;10.74;63.38;100246.28;6120907;22;97452;-80
2024/03/13 06:50:56;;;;;;;23.50;16.75;;;;;;;10.75;63.68;100249.78;6147074;22;96636;-80
2024/03/13 06:53:22;;;;;;;27.83;15.52;;;;;;;10.78;63.39;100247.03;6119721;22;97039;-79
2024/03/13 06:55:47;;;;;;;19.33;15.75;;;;;;;10.83;63.40;100256.47;6120831;22;96886;-79
2024/03/13 06:58:13;;;;;;;20.98;15.18;;;;;;;10.80;63.46;100263.59;6095825;22;100124;-79
2024/03/13 07:00:39;;;;;;;25.67;15.93;;;;;;;10.81;63.29;100263.53;6095700;22;100196;-79
2024/03/13 07:03:05;;;;;;;22.55;15.75;;;;;;;10.66;64.16;100264.09;6120872;22;96601;-78
2024/03/13 07:05:30;;;;;;;23.00;16.67;;;;;;;10.58;64.88;100268.75;6121162;22;96805;-79
2024/03/13 07:07:56;;;;;;;21.20;15.38;;;;;;;10.60;64.43;100267.78;6119523;22;97316;-80
2024/03/13 07:10:21;;;;;;;23.63;16.73;;;;;;;10.67;64.38;100265.78;6096769;22;97378;-80
2024/03/13 07:12:48;;;;;;;25.27;16.65;;;;;;;10.75;64.01;100276.88;6095606;22;97386;-79
2024/03/13 07:15:14;;;;;;;26.15;17.23;;;;;;;10.76;64.21;100273.38;6146472;22;96671;-79
2024/03/13 07:17:39;;;;;;;22.63;16.20;;;;;;;10.78;63.74;100270.66;6142302;22;97403;-78
2024/03/13 07:20:09;;;;;;;26.02;16.90;;;;;;;10.77;63.80;100275.06;6094984;22;100014;-80
2024/03/13 07:22:35;;;;;;;24.13;16.45;;;;;;;10.73;63.72;100262.94;6119844;22;97182;-82
2024/03/13 07:25:02;;;;;;;29.30;17.15;;;;;;;10.76;63.90;100268.09;6119431;22;97652;-78
2024/03/13 07:27:28;;;;;;;22.08;15.18;;;;;;;10.79;63.91;100270.63;6115544;22;97440;-79
2024/03/13 07:29:53;;;;;;;21.65;15.02;;;;;;;10.83;64.01;100285.34;6146661;22;97388;-80
2024/03/13 07:32:21;;;;;;;22.02;15.80;;;;;;;10.86;63.87;100284.38;6143522;22;97237;-80
2024/03/13 07:34:46;;;;;;;25.80;17.25;;;;;;;10.84;63.73;100275.69;6116770;22;97321;-79
2024/03/13 07:37:12;;;;;;;26.33;16.58;;;;;;;10.85;63.37;100274.81;6120697;22;97507;-83
2024/03/13 07:39:38;;;;;;;30.58;16.73;;;;;;;10.89;63.99;100292.16;6096122;22;100621;-83
2024/03/13 07:42:05;;;;;;;27.25;17.13;;;;;;;10.92;63.88;100288.56;6093629;22;97185;-82
2024/03/13 07:44:30;;;;;;;24.67;15.57;;;;;;;10.75;64.03;100274.25;6093840;22;96868;-83
2024/03/13 07:46:56;;;;;;;21.40;15.75;;;;;;;10.88;63.41;100290.44;6118390;22;98240;-84
2024/03/13 07:49:21;;;;;;;21.90;15.35;;;;;;;10.91;63.63;100289.44;6093857;22;97887;-83
2024/03/13 07:51:47;;;;;;;25.23;15.77;;;;;;;10.96;63.69;100298.03;6093361;22;96711;-82
2024/03/13 07:54:12;;;;;;;28.50;15.73;;;;;;;10.96;63.88;100284.91;6093663;22;97147;-83
2024/03/13 07:56:38;;;;;;;27.55;17.02;;;;;;;10.96;64.22;100287.53;6117448;22;97371;-82
2024/03/13 07:59:07;;;;;;;22.38;16.67;;;;;;;11.01;63.70;100290.84;6094152;22;101297;-83
2024/03/13 08:01:40;;;;;;;22.35;16.02;;;;;;;11.03;63.73;100286.41;6093884;22;97107;-82
2024/03/13 08:04:07;;;;;;;22.33;15.38;;;;;;;11.08;63.97;100289.69;6093909;22;97134;-83
2024/03/13 08:06:36;;;;;;;27.65;16.23;;;;;;;11.12;64.00;100285.22;6117141;22;97580;-82
2024/03/13 08:09:02;;;;;;;25.50;16.95;;;;;;;11.17;64.08;100297.28;6118344;22;97849;-82
2024/03/13 08:11:30;;;;;;;25.38;16.02;;;;;;;11.22;63.67;100302.34;6093383;22;96965;-82
2024/03/13 08:13:57;;;;;;;27.67;17.00;;;;;;;11.21;63.59;100290.97;6094313;22;96995;-82
2024/03/13 08:16:23;;;;;;;26.60;16.95;;;;;;;11.20;63.58;100283.13;6118382;22;98302;-82
2024/03/13 08:18:49;;;;;;;23.00;16.20;;;;;;;11.22;63.53;100279.53;6092860;22;100344;-82
2024/03/13 08:21:16;;;;;;;24.85;17.63;;;;;;;11.32;63.39;100288.81;6095205;22;96696;-82
2024/03/13 08:23:44;;;;;;;19.92;15.38;;;;;;;11.43;63.57;100296.28;6120765;22;96819;-83
2024/03/13 08:26:10;;;;;;;23.48;17.17;;;;;;;11.45;63.46;100301.47;6120959;22;97730;-83
2024/03/13 08:28:37;;;;;;;28.88;17.33;;;;;;;11.42;63.75;100291.94;6146575;22;97127;-83
2024/03/13 08:31:06;;;;;;;27.98;18.30;;;;;;;11.60;63.47;100294.78;6121304;22;97196;-83
2024/03/13 08:33:32;;;;;;;23.67;16.00;;;;;;;11.71;63.45;100306.59;6121103;22;97554;-84
2024/03/13 08:35:58;;;;;;;23.33;16.08;;;;;;;11.72;63.32;100307.44;6096006;22;100263;-82
2024/03/13 08:38:24;;;;;;;30.40;16.63;;;;;;;11.74;62.94;100303.00;6120822;22;97277;-83
2024/03/13 08:40:49;;;;;;;23.80;16.98;;;;;;;11.67;63.31;100291.88;6120727;22;96740;-83
2024/03/13 08:43:19;;;;;;;25.98;17.13;;;;;;;11.86;62.60;100305.16;6095338;22;96985;-82
2024/03/13 08:45:45;;;;;;;25.10;16.77;;;;;;;12.08;62.25;100304.31;6110376;22;97580;-83
2024/03/13 08:48:11;;;;;;;29.45;17.30;;;;;;;12.22;62.60;100316.00;6091744;22;97385;-81
2024/03/13 08:50:37;;;;;;;27.33;17.42;;;;;;;12.38;61.85;100302.19;6090859;22;96903;-83
2024/03/13 08:53:03;;;;;;;25.73;17.83;;;;;;;12.57;61.34;100307.56;6090914;22;97487;-82
2024/03/13 08:55:32;;;;;;;29.75;17.75;;;;;;;12.84;61.58;100305.50;6091426;22;100503;-82
2024/03/13 08:57:58;;;;;;;28.23;17.10;;;;;;;13.42;59.58;100296.81;6118245;22;97261;-82
2024/03/13 09:00:24;;;;;;;48.70;19.20;;;;;;;13.44;59.21;100301.09;6118310;22;97085;-82
2024/03/13 09:02:55;;;;;;;28.05;15.95;;;;;;;13.34;58.90;100298.00;6093120;22;97259;-83
2024/03/13 09:05:21;;;;;;;31.02;16.52;;;;;;;13.41;58.53;100306.50;6094299;22;98092;-83
2024/03/13 09:07:47;;;;;;;27.83;16.95;;;;;;;13.42;58.15;100307.34;6118163;22;97785;-81
2024/03/13 09:10:12;;;;;;;37.47;16.90;;;;;;;13.27;58.80;100301.84;6093732;22;97482;-82
2024/03/13 09:12:39;;;;;;;23.75;16.45;;;;;;;13.20;58.70;100297.72;6093830;22;97243;-82
2024/03/13 09:15:05;;;;;;;35.33;17.35;;;;;;;13.23;58.85;100305.50;6116482;22;97381;-81
2024/03/13 09:17:31;;;;;;;24.35;16.58;;;;;;;13.23;58.87;100316.03;6091822;22;98315;-83
2024/03/13 09:19:56;;;;;;;22.63;16.02;;;;;;;13.17;58.97;100305.78;6092551;22;96873;-82
2024/03/13 09:22:22;;;;;;;19.25;15.13;;;;;;;13.10;58.79;100317.53;6116946;22;97629;-82
2024/03/13 09:24:48;;;;;;;22.45;16.67;;;;;;;13.16;59.09;100319.91;6118324;22;97861;-82
2024/03/13 09:27:13;;;;;;;29.95;16.42;;;;;;;13.17;58.72;100318.97;6116810;22;97722;-83
2024/03/13 09:29:39;;;;;;;32.67;16.83;;;;;;;13.21;59.03;100324.97;6093926;22;97392;-82
2024/03/13 09:32:05;;;;;;;22.42;14.60;;;;;;;13.31;58.49;100327.13;6117554;22;97202;-82
2024/03/13 09:34:32;;;;;;;22.10;15.38;;;;;;;13.36;57.97;100316.41;6093543;22;98557;-82
2024/03/13 09:37:00;;;;;;;22.08;15.55;;;;;;;13.29;58.45;100321.09;6117806;22;97494;-82
2024/03/13 09:39:26;;;;;;;27.55;16.10;;;;;;;13.40;58.78;100323.22;6119075;22;97325;-82
2024/03/13 09:42:00;;;;;;;31.23;17.27;;;;;;;13.55;58.51;100326.94;6117451;22;97284;-82
2024/03/13 09:44:26;;;;;;;20.10;16.10;;;;;;;13.72;57.77;100337.56;6092713;22;100870;-81
2024/03/13 09:46:54;;;;;;;26.00;15.68;;;;;;;13.89;57.49;100331.50;6116494;22;100363;-80
2024/03/13 09:49:21;;;;;;;21.25;16.20;;;;;;;13.92;57.16;100331.34;6093970;22;97154;-83
2024/03/13 09:51:48;;;;;;;25.33;16.70;;;;;;;14.11;56.76;100328.69;6117826;22;97080;-82
2024/03/13 09:54:14;;;;;;;21.25;15.55;;;;;;;14.22;55.92;100328.16;6092088;22;100130;-82
2024/03/13 09:56:40;;;;;;;22.63;14.93;;;;;;;14.42;56.34;100332.44;6117797;22;97388;-84
2024/03/13 09:59:09;;;;;;;21.38;14.25;;;;;;;14.54;56.50;100333.66;6070481;22;97112;-83
2024/03/13 10:01:42;;;;;;;27.55;15.02;;;;;;;14.75;55.51;100334.34;6119396;22;97152;-83
2024/03/13 10:04:12;;;;;;;27.02;15.05;;;;;;;14.85;55.85;100340.88;6118977;22;97377;-80
2024/03/13 10:06:43;;;;;;;28.15;14.77;;;;;;;14.96;54.71;100332.41;6119649;22;97996;-82
2024/03/13 10:09:12;;;;;;;22.55;13.68;;;;;;;15.04;54.11;100322.28;6093922;22;96749;-83
2024/03/13 10:11:45;;;;;;;20.17;14.00;;;;;;;16.00;52.48;100327.66;6093753;22;96912;-83
2024/03/13 10:14:11;;;;;;;21.75;14.52;;;;;;;17.04;51.23;100327.81;6094124;22;100618;-83
2024/03/13 10:16:39;;;;;;;14.80;11.23;;;;;;;17.49;51.57;100315.31;6068839;22;100065;-83
2024/03/13 10:19:06;;;;;;;15.35;12.13;;;;;;;17.75;50.07;100317.16;6119678;22;96677;-83
2024/03/13 10:21:33;;;;;;;18.88;13.18;;;;;;;18.01;49.26;100320.84;6113758;23;97301;-82
2024/03/13 10:23:59;;;;;;;23.08;12.10;;;;;;;18.02;46.84;100313.72;6064734;23;100260;-84
2024/03/13 10:26:26;;;;;;;17.27;11.48;;;;;;;17.99;46.59;100313.91;6088899;23;97276;-82
2024/03/13 10:28:52;;;;;;;18.35;12.82;;;;;;;17.88;46.46;100320.75;6089623;23;97317;-83
2024/03/13 10:31:17;;;;;;;18.42;13.35;;;;;;;17.71;45.59;100310.34;6062416;23;97371;-81
2024/03/13 10:33:43;;;;;;;17.98;11.35;;;;;;;17.63;47.62;100317.97;6087225;23;97984;-81
2024/03/13 10:36:11;;;;;;;12.82;10.07;;;;;;;17.72;47.70;100317.38;6089131;23;99421;-82
2024/03/13 10:38:37;;;;;;;17.65;12.32;;;;;;;17.76;45.63;100323.31;6113602;23;97290;-83
2024/03/13 10:41:03;;;;;;;19.80;12.23;;;;;;;17.57;46.19;100327.16;6089538;23;97215;-85
2024/03/13 10:43:32;;;;;;;16.23;11.45;;;;;;;17.43;46.71;100325.38;6087843;23;100409;-82
2024/03/13 10:45:57;;;;;;;21.10;12.43;;;;;;;17.45;45.67;100314.63;6088779;23;97330;-81
2024/03/13 10:48:26;;;;;;;15.43;11.65;;;;;;;17.42;44.94;100328.09;6112338;23;97183;-81
2024/03/13 10:50:56;;;;;;;14.70;10.98;;;;;;;17.29;44.62;100320.06;6114007;23;97152;-84
2024/03/13 10:53:22;;;;;;;13.35;9.45;;;;;;;17.20;44.70;100317.97;6086490;22;99466;-83
2024/03/13 10:55:47;;;;;;;20.08;10.60;;;;;;;17.09;44.29;100323.09;6112623;22;100810;-83
2024/03/13 10:58:20;;;;;;;19.00;10.88;;;;;;;17.02;44.56;100316.47;6110266;23;97301;-84
2024/03/13 11:00:52;;;;;;;21.15;10.98;;;;;;;16.96;45.11;100321.19;6113707;23;96768;-83
2024/03/13 11:03:18;;;;;;;17.63;10.75;;;;;;;16.83;44.77;100322.00;6086731;23;100972;-83
2024/03/13 11:05:44;;;;;;;19.23;10.77;;;;;;;16.79;45.26;100312.56;6088770;23;97265;-83
2024/03/13 11:08:09;;;;;;;16.48;11.77;;;;;;;16.66;45.43;100318.53;6113062;23;96745;-87
2024/03/13 11:10:35;;;;;;;13.45;9.40;;;;;;;16.63;45.87;100318.72;6117715;22;96774;-85
2024/03/13 11:13:05;;;;;;;14.57;10.65;;;;;;;16.66;45.28;100320.31;6089592;23;97535;-86
2024/03/13 11:15:37;;;;;;;14.23;9.63;;;;;;;16.81;44.76;100316.78;6115606;22;100224;-86
2024/03/13 11:18:04;;;;;;;13.07;8.80;;;;;;;16.68;44.94;100315.78;6113953;23;97202;-86
2024/03/13 11:20:48;;;;;;;12.85;9.82;;;;;;;16.57;45.87;100319.06;6120443;22;97404;-86
2024/03/13 11:23:29;;;;;;;13.18;10.00;;;;;;;16.52;45.21;100310.53;6069115;22;98615;-84
2024/03/13 11:25:56;;;;;;;;;;;;;;;16.54;45.56;100316.59;6071415;22;98860;-86
2024/03/13 11:28:28;;;;;;;15.90;9.73;;;;;;;16.30;47.13;100317.09;6119710;22;97409;-86